Current | Forecast
Updated: 9:11 AM JST on November 19, 2017
Observed at Shizuhama AB, Japan
Temperature 52°F
Humidity 38%
Dew Point 27°F
Wind West at 18 mph
Wind Gust 30 mph
Pressure 29.86 in (Rising)
Conditions Partly Cloudy
Visibility 6.2 miles
UV 2 out of 16
Clouds (FEW) : 2500 ft
Yesterday's Maximum 50°F
Yesterday's Minimum 48°F approx.
Yesterday's Heating Degree Days 16 approx.
Sunrise6:24 AM JST
Sunset4:40 PM JST
Moon Rise6:41 AM JST
Moon Set5:28 PM JST
Moon PhaseMoon Phase
New Moon
Raw METARSPECI RJNY 190011Z 26016G26KT 9999 FEW025 11/M03 Q1011 RMK 1CU025 A2987


Monday
. High: 71° F.
Tuesday
. High: 71° F.
Wednesday
. High: 69° F.
Thursday
. High: 69° F.
Friday
. High: 71° F.
Saturday
. High: 77° F.
Sunday
. High: 75° F.
Monday
. High: 77° F.

Units: English | Metric

Find the Weather for any City, State or Zipcode, or Country:

U.S. State List | Severe Weather | Tropical Storms | Ski Conditions
United States | Canada | Central America | South America | Asia | Europe | Australia | Africa | Islands

Weather Underground

© Copyright 2017
The Weather Company, LLC